Time;durP1;ratioP1;P1;durP2;ratioP2;P2;SDS_P1;SDS_P2;PMS_P1;PMS_P2;Temp;Humidity;BMP_temperature;BMP_pressure;BME280_temperature;BME280_humidity;BME280_pressure;Samples;Min_cycle;Max_cycle;Signal;HPM_P1;HPM_P2
2024/02/10 00:03:36;;;;;;;8.27;6.18;;;12.20;99.90;;;;;;10452271;28;20356;-60
2024/02/10 00:08:40;;;;;;;8.25;7.00;;;12.10;99.90;;;;;;10462050;28;20618;-60
2024/02/10 00:13:45;;;;;;;15.52;9.75;;;12.10;99.90;;;;;;10430744;28;20273;-59
2024/02/10 00:18:49;;;;;;;12.43;7.45;;;12.10;99.90;;;;;;10456678;28;20241;-60
2024/02/10 00:23:54;;;;;;;11.23;8.00;;;12.10;99.90;;;;;;10446983;28;20611;-60
2024/02/10 00:28:59;;;;;;;12.27;7.85;;;12.10;99.90;;;;;;10445307;28;20245;-59
2024/02/10 00:34:03;;;;;;;16.15;9.20;;;12.10;99.90;;;;;;10443791;28;20628;-60
2024/02/10 00:39:07;;;;;;;14.93;9.90;;;12.10;99.90;;;;;;10437109;28;20256;-59
2024/02/10 00:44:12;;;;;;;14.23;9.38;;;12.10;99.90;;;;;;10438792;28;20265;-60
2024/02/10 00:49:16;;;;;;;16.77;9.60;;;12.10;99.90;;;;;;10448580;28;20200;-60
2024/02/10 00:54:26;;;;;;;18.77;7.72;;;12.00;99.90;;;;;;10442367;28;20207;-60
2024/02/10 00:59:31;;;;;;;16.42;8.73;;;12.00;99.90;;;;;;10444206;28;20280;-60
2024/02/10 01:04:35;;;;;;;18.85;9.05;;;12.00;99.90;;;;;;10451808;28;20220;-62
2024/02/10 01:09:40;;;;;;;12.23;5.65;;;11.90;99.90;;;;;;10449976;28;20873;-59
2024/02/10 01:14:45;;;;;;;24.83;8.55;;;11.90;99.90;;;;;;10458002;28;20188;-60
2024/02/10 01:19:50;;;;;;;15.25;7.78;;;11.90;99.90;;;;;;10458156;28;20196;-59
2024/02/10 01:24:54;;;;;;;14.82;9.10;;;11.80;99.90;;;;;;10470533;28;20215;-59
2024/02/10 01:30:01;;;;;;;13.93;6.43;;;11.80;99.90;;;;;;10456458;28;20582;-58
2024/02/10 01:35:05;;;;;;;14.52;5.53;;;11.80;99.90;;;;;;10446401;28;20200;-60
2024/02/10 01:40:11;;;;;;;5.80;3.35;;;11.80;99.90;;;;;;10451113;28;20769;-58
2024/02/10 01:45:17;;;;;;;4.13;2.85;;;11.70;99.90;;;;;;10455419;28;20588;-60
2024/02/10 01:50:21;;;;;;;5.13;3.42;;;11.80;99.90;;;;;;10450339;28;20305;-60
2024/02/10 01:55:25;;;;;;;5.25;4.00;;;11.70;99.90;;;;;;10456505;28;20217;-59
2024/02/10 02:00:30;;;;;;;5.05;4.30;;;11.70;99.90;;;;;;10464958;28;20231;-60
2024/02/10 02:05:34;;;;;;;6.68;5.30;;;11.70;99.90;;;;;;10441424;28;20216;-60
2024/02/10 02:10:38;;;;;;;5.43;4.93;;;11.70;99.90;;;;;;10432326;28;20224;-60
2024/02/10 02:15:43;;;;;;;5.88;5.30;;;11.70;99.90;;;;;;10447726;28;20203;-60
2024/02/10 02:20:48;;;;;;;5.85;4.53;;;11.60;99.90;;;;;;10454038;28;20714;-60
2024/02/10 02:25:54;;;;;;;6.05;4.68;;;11.60;99.90;;;;;;10443347;28;20241;-61
2024/02/10 02:30:57;;;;;;;5.80;4.00;;;11.60;99.90;;;;;;10439699;28;20296;-60
2024/02/10 02:36:01;;;;;;;3.90;3.50;;;11.60;99.90;;;;;;10441709;28;20196;-59
2024/02/10 02:41:06;;;;;;;4.82;3.55;;;11.60;99.90;;;;;;10448433;28;20220;-58
2024/02/10 02:46:10;;;;;;;4.32;3.60;;;11.50;99.90;;;;;;10446253;28;20590;-60
2024/02/10 02:51:20;;;;;;;4.60;3.28;;;11.50;99.90;;;;;;10457888;28;20219;-59
2024/02/10 02:56:25;;;;;;;4.75;4.03;;;11.40;99.90;;;;;;10458956;28;20221;-57
2024/02/10 03:01:30;;;;;;;5.05;3.60;;;11.40;99.90;;;;;;10458090;28;20294;-59
2024/02/10 03:06:34;;;;;;;4.80;3.72;;;11.40;99.90;;;;;;10436368;28;20216;-59
2024/02/10 03:11:39;;;;;;;4.65;3.45;;;11.40;99.90;;;;;;10456881;28;20232;-59
2024/02/10 03:16:45;;;;;;;3.97;3.58;;;11.30;99.90;;;;;;10456306;28;20199;-58
2024/02/10 03:21:49;;;;;;;4.28;3.85;;;11.30;99.90;;;;;;10450940;28;20223;-59
2024/02/10 03:26:53;;;;;;;3.60;3.20;;;11.40;99.90;;;;;;10460285;28;20210;-59
2024/02/10 03:31:57;;;;;;;5.38;3.75;;;11.40;99.90;;;;;;10452225;28;20339;-60
2024/02/10 03:37:01;;;;;;;6.93;3.30;;;11.40;99.90;;;;;;10448408;28;20198;-60
2024/02/10 03:42:07;;;;;;;3.75;3.30;;;11.40;99.90;;;;;;10437258;28;20218;-59
2024/02/10 03:47:10;;;;;;;4.47;3.30;;;11.40;99.90;;;;;;10452489;28;20266;-59
2024/02/10 03:52:14;;;;;;;4.20;2.90;;;11.40;99.90;;;;;;10447997;28;20848;-59
2024/02/10 03:57:21;;;;;;;4.68;3.45;;;11.40;99.90;;;;;;10448793;28;20257;-62
2024/02/10 04:02:25;;;;;;;3.13;2.65;;;11.40;99.90;;;;;;10445330;28;20276;-59
2024/02/10 04:07:29;;;;;;;3.25;2.90;;;11.40;99.90;;;;;;10455762;28;20220;-60
2024/02/10 04:12:34;;;;;;;3.22;2.92;;;11.40;99.90;;;;;;10445166;28;20285;-60
2024/02/10 04:17:38;;;;;;;3.20;2.90;;;11.40;99.90;;;;;;10473165;28;20221;-59
2024/02/10 04:22:45;;;;;;;3.35;2.90;;;11.40;99.90;;;;;;10453149;28;20297;-57
2024/02/10 04:27:50;;;;;;;2.97;2.67;;;11.40;99.90;;;;;;10427318;28;20655;-60
2024/02/10 04:32:53;;;;;;;3.70;2.90;;;11.30;99.90;;;;;;10455401;28;20228;-60
2024/02/10 04:38:01;;;;;;;3.20;2.90;;;11.30;99.90;;;;;;10450472;28;20235;-61
2024/02/10 04:43:06;;;;;;;3.65;3.08;;;11.30;99.90;;;;;;10440623;28;20643;-61
2024/02/10 04:48:12;;;;;;;3.00;2.55;;;11.30;99.90;;;;;;10464634;28;20626;-59
2024/02/10 04:53:16;;;;;;;3.60;2.85;;;11.30;99.90;;;;;;10427133;28;20229;-61
2024/02/10 04:58:24;;;;;;;4.03;2.92;;;11.30;99.90;;;;;;10464473;28;20254;-61
2024/02/10 05:03:28;;;;;;;4.45;2.95;;;11.20;99.90;;;;;;10449685;28;20241;-61
2024/02/10 05:08:31;;;;;;;2.78;2.55;;;11.20;99.90;;;;;;10455658;28;20219;-60
2024/02/10 05:13:38;;;;;;;3.63;3.20;;;11.20;99.90;;;;;;10451357;28;20731;-60
2024/02/10 05:18:41;;;;;;;3.30;3.00;;;11.10;99.90;;;;;;10444143;28;20265;-60
2024/02/10 05:23:48;;;;;;;3.55;3.25;;;11.10;99.90;;;;;;10454871;28;20293;-59
2024/02/10 05:28:54;;;;;;;3.87;3.07;;;11.00;99.90;;;;;;10440916;28;20675;-61
2024/02/10 05:33:57;;;;;;;4.28;3.58;;;11.00;99.90;;;;;;10452670;28;20657;-61
2024/02/10 05:39:02;;;;;;;3.72;3.28;;;11.00;99.90;;;;;;10440601;28;20248;-60
2024/02/10 05:44:12;;;;;;;3.35;3.03;;;10.90;99.90;;;;;;10443478;28;20764;-61
2024/02/10 05:49:18;;;;;;;3.50;3.20;;;10.90;99.90;;;;;;10445351;28;20200;-61
2024/02/10 05:54:22;;;;;;;4.63;4.22;;;10.90;99.90;;;;;;10447579;28;20216;-60
2024/02/10 05:59:27;;;;;;;3.50;3.20;;;10.80;99.90;;;;;;10451214;28;20222;-60
2024/02/10 06:04:30;;;;;;;4.07;3.05;;;10.80;99.90;;;;;;10444337;28;20227;-60
2024/02/10 06:09:36;;;;;;;3.83;3.30;;;10.80;99.90;;;;;;10451846;28;20274;-59
2024/02/10 06:14:41;;;;;;;3.83;3.08;;;10.70;99.90;;;;;;10453136;28;20563;-60
2024/02/10 06:19:45;;;;;;;3.42;3.13;;;10.70;99.90;;;;;;10453378;28;20199;-59
2024/02/10 06:24:49;;;;;;;4.18;3.53;;;10.70;99.90;;;;;;10447087;28;20379;-59
2024/02/10 06:29:54;;;;;;;3.78;3.38;;;10.70;99.90;;;;;;10456835;28;20260;-58
2024/02/10 06:34:58;;;;;;;3.40;3.10;;;10.70;99.90;;;;;;10465870;28;20269;-60
2024/02/10 06:40:03;;;;;;;4.40;4.00;;;10.60;99.90;;;;;;10468405;28;20219;-58
2024/02/10 06:45:11;;;;;;;4.38;3.33;;;10.60;99.90;;;;;;10440503;28;20220;-59
2024/02/10 06:50:23;;;;;;;4.60;3.57;;;10.60;99.90;;;;;;10461197;28;20224;-60
2024/02/10 06:55:28;;;;;;;4.23;3.83;;;10.60;99.90;;;;;;10475112;28;20202;-60
2024/02/10 07:00:37;;;;;;;4.38;3.92;;;10.50;99.90;;;;;;10452170;28;20282;-60
2024/02/10 07:05:45;;;;;;;5.30;4.80;;;10.50;99.90;;;;;;10454436;28;20513;-62
2024/02/10 07:10:50;;;;;;;4.80;4.30;;;10.60;99.90;;;;;;10452131;28;20223;-59
2024/02/10 07:15:55;;;;;;;5.47;3.88;;;10.60;99.90;;;;;;10448794;28;20213;-60
2024/02/10 07:20:59;;;;;;;5.93;4.03;;;10.60;99.90;;;;;;10446706;28;20277;-61
2024/02/10 07:26:05;;;;;;;4.40;4.00;;;10.60;99.90;;;;;;10452090;28;20285;-61
2024/02/10 07:31:10;;;;;;;4.68;3.83;;;10.50;99.90;;;;;;10444717;28;20248;-61
2024/02/10 07:36:16;;;;;;;5.33;4.83;;;10.50;99.90;;;;;;10446738;28;20237;-61
2024/02/10 07:41:20;;;;;;;4.88;4.47;;;10.50;99.90;;;;;;10450532;28;20697;-61
2024/02/10 07:46:26;;;;;;;5.30;4.60;;;10.50;99.90;;;;;;10446275;28;20211;-61
2024/02/10 07:51:30;;;;;;;5.60;4.72;;;10.50;99.90;;;;;;10446967;28;20224;-61
2024/02/10 07:56:33;;;;;;;5.63;5.05;;;10.50;99.90;;;;;;10453448;28;20200;-62
2024/02/10 08:01:38;;;;;;;5.63;5.03;;;10.60;99.90;;;;;;10454450;28;20582;-59
2024/02/10 08:06:42;;;;;;;5.60;4.85;;;10.60;99.90;;;;;;10443761;28;20270;-62
2024/02/10 08:11:46;;;;;;;6.93;5.57;;;10.70;99.90;;;;;;10441310;28;20601;-62
2024/02/10 08:16:51;;;;;;;6.10;4.80;;;10.70;99.90;;;;;;10442268;28;20636;-63
2024/02/10 08:21:55;;;;;;;7.40;5.13;;;10.70;99.90;;;;;;10456029;28;20686;-62
2024/02/10 08:26:58;;;;;;;5.97;5.20;;;10.80;99.90;;;;;;10447525;28;20211;-60
2024/02/10 08:32:04;;;;;;;7.75;4.63;;;10.80;99.90;;;;;;10451539;28;20226;-61
2024/02/10 08:37:09;;;;;;;6.43;4.82;;;10.90;99.90;;;;;;10442290;28;20588;-61
2024/02/10 08:42:13;;;;;;;4.93;4.22;;;11.00;99.90;;;;;;10435356;28;20683;-60
2024/02/10 08:47:19;;;;;;;4.63;4.18;;;11.10;99.90;;;;;;10471032;28;20260;-61
2024/02/10 08:52:22;;;;;;;4.68;4.15;;;11.10;99.90;;;;;;10432114;28;20625;-61
2024/02/10 08:57:29;;;;;;;3.97;3.58;;;11.20;99.90;;;;;;10454917;28;20763;-61
2024/02/10 09:02:36;;;;;;;4.40;4.00;;;11.20;99.90;;;;;;10446934;28;20219;-61
2024/02/10 09:07:39;;;;;;;6.03;3.55;;;11.30;99.90;;;;;;10455819;28;20220;-62
2024/02/10 09:12:44;;;;;;;2.97;2.63;;;11.40;99.90;;;;;;10439644;28;20223;-62
2024/02/10 09:17:50;;;;;;;3.78;3.08;;;11.50;99.90;;;;;;10453473;28;20254;-62
2024/02/10 09:22:55;;;;;;;4.45;3.30;;;11.50;99.90;;;;;;10443334;28;20207;-63
2024/02/10 09:27:59;;;;;;;3.88;3.00;;;11.60;99.90;;;;;;10449188;28;20277;-63
2024/02/10 09:33:07;;;;;;;3.88;3.00;;;11.70;99.90;;;;;;10439601;28;20277;-63
2024/02/10 09:38:12;;;;;;;4.20;3.40;;;11.70;99.90;;;;;;10455591;28;20192;-63
2024/02/10 09:43:17;;;;;;;3.00;2.70;;;11.80;99.90;;;;;;10455206;28;20273;-63
2024/02/10 09:48:23;;;;;;;4.25;2.65;;;11.90;99.90;;;;;;10450775;28;20224;-70
2024/02/10 09:53:27;;;;;;;3.38;2.40;;;12.00;99.90;;;;;;10447717;28;20603;-63
2024/02/10 09:58:31;;;;;;;2.63;2.30;;;12.00;99.90;;;;;;10452333;28;20219;-62
2024/02/10 10:03:37;;;;;;;4.47;2.97;;;12.10;99.90;;;;;;10438244;28;20274;-62
2024/02/10 10:08:41;;;;;;;5.32;2.58;;;12.20;99.90;;;;;;10447440;28;20212;-62
2024/02/10 10:13:46;;;;;;;1.75;1.65;;;12.30;99.90;;;;;;10438562;28;20741;-61
2024/02/10 10:18:55;;;;;;;3.70;2.13;;;12.30;99.90;;;;;;10451743;28;20258;-61
2024/02/10 10:24:00;;;;;;;2.78;2.28;;;12.40;99.90;;;;;;10432786;28;20223;-62
2024/02/10 10:29:05;;;;;;;2.85;1.90;;;12.50;99.90;;;;;;10444765;28;20265;-61
2024/02/10 10:34:11;;;;;;;6.00;3.25;;;12.60;99.90;;;;;;10453371;28;20274;-62
2024/02/10 10:39:15;;;;;;;2.40;2.10;;;12.70;99.90;;;;;;10454991;28;20225;-61
2024/02/10 10:44:21;;;;;;;3.05;2.00;;;12.70;99.90;;;;;;10443040;28;20245;-61
2024/02/10 10:49:26;;;;;;;2.63;2.08;;;12.80;99.90;;;;;;10397178;28;20710;-62
2024/02/10 10:54:33;;;;;;;2.03;1.83;;;12.90;99.90;;;;;;10434851;28;20623;-61
2024/02/10 10:59:38;;;;;;;2.63;2.00;;;12.90;99.90;;;;;;10443899;28;20200;-61
2024/02/10 11:04:43;;;;;;;4.53;2.50;;;13.00;99.90;;;;;;10453758;28;20611;-61
2024/02/10 11:09:47;;;;;;;3.88;2.05;;;13.10;99.90;;;;;;10431644;28;20228;-61
2024/02/10 11:14:52;;;;;;;1.80;1.45;;;13.20;99.90;;;;;;10438924;28;20237;-61
2024/02/10 11:20:04;;;;;;;5.38;3.78;;;13.20;99.90;;;;;;10439893;28;20738;-61
2024/02/10 11:25:11;;;;;;;2.88;2.28;;;13.30;99.90;;;;;;10427343;28;20221;-61
2024/02/10 11:30:22;;;;;;;4.72;1.58;;;13.40;99.90;;;;;;10437155;28;20231;-62
2024/02/10 11:35:26;;;;;;;2.08;1.70;;;13.50;99.90;;;;;;10469315;22;20241;-63
2024/02/10 11:40:30;;;;;;;1.85;1.75;;;13.60;99.90;;;;;;10447983;28;20200;-63
2024/02/10 11:45:35;;;;;;;2.13;1.92;;;13.70;99.90;;;;;;10429428;28;20285;-63
2024/02/10 11:50:43;;;;;;;1.98;1.63;;;13.80;99.90;;;;;;10414928;28;20251;-63
2024/02/10 11:56:06;;;;;;;2.45;2.13;;;13.80;99.90;;;;;;10409499;28;20273;-62
2024/02/10 12:01:12;;;;;;;2.30;2.10;;;13.90;99.90;;;;;;10408703;28;20200;-62
2024/02/10 12:06:20;;;;;;;3.28;2.60;;;13.90;99.90;;;;;;10414607;28;20223;-62
2024/02/10 12:11:26;;;;;;;1.65;1.40;;;14.00;99.90;;;;;;10422497;28;20213;-62
2024/02/10 12:16:33;;;;;;;1.38;1.27;;;14.10;99.90;;;;;;10418420;28;20227;-62
2024/02/10 12:21:41;;;;;;;1.60;1.50;;;14.20;99.90;;;;;;10417952;28;20200;-62
2024/02/10 12:26:45;;;;;;;1.40;1.30;;;14.30;99.90;;;;;;10416345;28;20282;-63
2024/02/10 12:31:51;;;;;;;1.58;1.30;;;14.40;99.90;;;;;;10422138;28;20251;-64
2024/02/10 12:36:56;;;;;;;1.48;1.13;;;14.40;99.90;;;;;;10418319;28;20583;-63
2024/02/10 12:42:00;;;;;;;2.45;1.40;;;14.50;99.90;;;;;;10424029;28;20192;-67
2024/02/10 12:47:05;;;;;;;1.77;1.67;;;14.60;99.90;;;;;;10406779;28;20235;-66
2024/02/10 12:52:20;;;;;;;1.48;1.30;;;14.70;99.90;;;;;;10417728;28;20256;-67
2024/02/10 12:57:24;;;;;;;2.10;1.58;;;14.80;99.90;;;;;;10414190;28;20200;-66
2024/02/10 13:02:28;;;;;;;2.22;1.38;;;14.80;99.90;;;;;;10415764;28;20310;-66
2024/02/10 13:07:33;;;;;;;2.35;1.80;;;14.90;99.90;;;;;;10430710;28;20208;-66
2024/02/10 13:12:36;;;;;;;2.60;2.08;;;15.00;99.90;;;;;;10429341;28;20278;-67
2024/02/10 13:17:40;;;;;;;1.85;1.75;;;15.10;99.90;;;;;;10430219;28;20221;-64
2024/02/10 13:22:47;;;;;;;2.00;1.80;;;15.10;99.90;;;;;;10429956;28;20224;-63
2024/02/10 13:27:51;;;;;;;2.30;1.70;;;15.20;99.90;;;;;;10416189;28;20771;-63
2024/02/10 13:32:56;;;;;;;1.95;1.23;;;15.10;99.90;;;;;;10415792;28;20236;-64
2024/02/10 14:04:52;;;;;;;2.45;1.10;;;14.80;99.90;;;;;;10424865;28;20269;-63
2024/02/10 14:10:11;;;;;;;0.95;0.90;;;14.90;99.90;;;;;;10421491;28;20228;-64
2024/02/10 14:15:17;;;;;;;2.65;1.38;;;15.00;99.90;;;;;;10421913;28;20216;-64
2024/02/10 14:20:24;;;;;;;4.05;1.60;;;15.10;99.90;;;;;;10434711;28;20200;-64
2024/02/10 14:25:30;;;;;;;11.45;2.20;;;15.00;99.90;;;;;;10414901;28;20224;-66
2024/02/10 14:30:38;;;;;;;2.05;1.25;;;14.80;99.90;;;;;;10414519;28;20277;-60
2024/02/10 14:35:52;;;;;;;2.78;1.20;;;14.80;99.90;;;;;;10410592;28;20236;-65
2024/02/10 14:41:01;;;;;;;2.13;1.50;;;14.70;99.90;;;;;;10446309;28;20218;-63
2024/02/10 14:46:08;;;;;;;2.25;1.30;;;14.60;99.90;;;;;;10420756;28;20582;-65
2024/02/10 14:51:12;;;;;;;2.58;1.70;;;14.60;99.90;;;;;;10441257;28;20824;-63
2024/02/10 14:56:20;;;;;;;5.40;1.63;;;14.50;99.90;;;;;;10404980;28;20221;-63
2024/02/10 15:01:25;;;;;;;2.15;1.63;;;14.40;99.90;;;;;;10417297;28;20207;-64
2024/02/10 15:06:33;;;;;;;1.95;1.75;;;14.40;99.90;;;;;;10427265;28;20729;-64
2024/02/10 15:11:39;;;;;;;2.20;1.42;;;14.30;99.90;;;;;;10436360;28;20205;-64
2024/02/10 15:16:43;;;;;;;2.70;1.33;;;14.30;99.90;;;;;;10422891;28;20779;-63
2024/02/10 15:21:46;;;;;;;2.28;1.70;;;14.20;99.90;;;;;;10453206;28;20192;-64
2024/02/10 15:26:51;;;;;;;1.92;1.60;;;14.20;99.90;;;;;;10430788;28;20227;-65
2024/02/10 15:31:56;;;;;;;3.83;1.92;;;14.10;99.90;;;;;;10430322;28;20219;-64
2024/02/10 15:37:02;;;;;;;3.08;1.63;;;14.10;99.90;;;;;;10436140;28;20644;-65
2024/02/10 15:42:07;;;;;;;2.20;1.80;;;14.10;99.90;;;;;;10411267;28;20215;-65
2024/02/10 15:47:11;;;;;;;1.70;1.60;;;14.00;99.90;;;;;;10423344;28;20568;-65
2024/02/10 15:52:19;;;;;;;1.98;1.77;;;13.90;99.90;;;;;;10415961;28;20263;-64
2024/02/10 15:57:24;;;;;;;2.65;1.75;;;13.90;99.90;;;;;;10433821;28;20218;-65
2024/02/10 16:02:27;;;;;;;2.67;1.80;;;13.90;99.90;;;;;;10414738;28;20274;-64
2024/02/10 16:07:31;;;;;;;3.63;1.80;;;13.80;99.90;;;;;;10423772;28;20199;-65
2024/02/10 16:12:36;;;;;;;3.03;2.20;;;13.80;99.90;;;;;;10419371;28;20224;-65
2024/02/10 16:17:40;;;;;;;3.13;2.35;;;13.70;99.90;;;;;;10393721;28;20254;-64
2024/02/10 16:22:44;;;;;;;2.90;2.25;;;13.70;99.90;;;;;;10411993;28;20262;-65
2024/02/10 16:27:52;;;;;;;2.50;2.13;;;13.70;99.90;;;;;;10419359;28;20230;-66
2024/02/10 16:32:56;;;;;;;3.85;2.33;;;13.60;99.90;;;;;;10416627;28;20252;-63
2024/02/10 16:38:00;;;;;;;2.42;1.95;;;13.60;99.90;;;;;;10424577;28;20246;-65
2024/02/10 16:43:07;;;;;;;2.97;2.30;;;13.50;99.90;;;;;;10418059;28;20258;-65
2024/02/10 16:48:14;;;;;;;3.15;2.85;;;13.50;99.90;;;;;;10412040;28;20254;-65
2024/02/10 16:53:18;;;;;;;4.28;3.00;;;13.50;99.90;;;;;;10408442;28;20853;-65
2024/02/10 16:58:23;;;;;;;3.20;2.50;;;13.40;99.90;;;;;;10409632;28;20200;-65
2024/02/10 17:03:26;;;;;;;4.43;3.10;;;13.40;99.90;;;;;;10422221;28;20207;-64
2024/02/10 17:08:30;;;;;;;3.72;2.78;;;13.30;99.90;;;;;;10414120;28;20724;-65
2024/02/10 17:13:35;;;;;;;4.15;3.13;;;13.30;99.90;;;;;;10418203;28;20224;-66
2024/02/10 17:18:41;;;;;;;5.60;3.72;;;13.30;99.90;;;;;;10413450;28;20204;-65
2024/02/10 17:23:45;;;;;;;4.15;3.25;;;13.20;99.90;;;;;;10418167;28;20579;-65
2024/02/10 17:28:51;;;;;;;3.80;3.40;;;13.20;99.90;;;;;;10406167;28;20688;-67
2024/02/10 17:33:54;;;;;;;5.05;3.90;;;13.10;99.90;;;;;;10407319;28;20219;-65
2024/02/10 17:39:00;;;;;;;8.85;5.78;;;13.10;99.90;;;;;;10422009;28;20213;-65
2024/02/10 17:44:06;;;;;;;12.60;7.47;;;13.10;99.90;;;;;;10414675;28;20285;-65
2024/02/10 17:49:10;;;;;;;12.75;6.97;;;13.10;99.90;;;;;;10420889;28;20200;-67
2024/02/10 17:54:18;;;;;;;11.27;7.93;;;13.00;99.90;;;;;;10419944;28;20274;-67
2024/02/10 17:59:27;;;;;;;11.15;7.10;;;13.00;99.90;;;;;;10417583;28;20204;-66
2024/02/10 18:04:31;;;;;;;9.05;6.65;;;13.00;99.90;;;;;;10435836;28;20245;-67
2024/02/10 18:09:35;;;;;;;7.85;6.35;;;13.00;99.90;;;;;;10422512;28;20220;-68
2024/02/10 18:14:40;;;;;;;7.85;6.55;;;12.90;99.90;;;;;;10412071;28;20299;-67
2024/02/10 18:19:43;;;;;;;11.07;8.00;;;12.90;99.90;;;;;;10421813;28;20246;-68
2024/02/10 18:24:47;;;;;;;10.43;8.07;;;12.90;99.90;;;;;;10412910;28;20228;-67
2024/02/10 18:29:52;;;;;;;11.18;8.15;;;12.90;99.90;;;;;;10416579;28;20501;-69
2024/02/10 18:34:56;;;;;;;9.35;7.57;;;12.90;99.90;;;;;;10416643;28;20278;-67
2024/02/10 18:40:04;;;;;;;9.32;7.88;;;12.90;99.90;;;;;;10416875;28;20195;-68
2024/02/10 18:45:10;;;;;;;8.05;7.25;;;12.80;99.90;;;;;;10415479;28;20269;-68
2024/02/10 18:50:16;;;;;;;8.23;7.35;;;12.80;99.90;;;;;;10416592;28;20286;-67
2024/02/10 18:55:21;;;;;;;7.85;7.05;;;12.80;99.90;;;;;;10419497;28;20312;-67
2024/02/10 19:00:26;;;;;;;8.57;7.43;;;12.80;99.90;;;;;;10426467;28;20281;-66
2024/02/10 19:05:29;;;;;;;7.82;7.00;;;12.80;99.90;;;;;;10414292;28;20684;-66
2024/02/10 19:10:35;;;;;;;7.68;6.88;;;12.80;99.90;;;;;;10419821;28;20626;-68
2024/02/10 19:15:40;;;;;;;10.48;6.75;;;12.70;99.90;;;;;;10416264;28;20223;-69
2024/02/10 19:20:44;;;;;;;9.63;7.07;;;12.70;99.90;;;;;;10417002;28;20196;-65
2024/02/10 19:25:50;;;;;;;9.30;7.57;;;12.70;99.90;;;;;;10413854;28;20266;-67
2024/02/10 19:30:56;;;;;;;9.63;8.52;;;12.60;99.90;;;;;;10417346;28;20694;-63
2024/02/10 19:35:59;;;;;;;9.55;8.10;;;12.60;99.90;;;;;;10426493;28;20235;-62
2024/02/10 19:41:05;;;;;;;9.45;8.43;;;12.50;99.90;;;;;;10408852;28;20255;-62
2024/02/10 19:46:14;;;;;;;10.00;8.07;;;12.50;99.90;;;;;;10417310;28;20224;-60
2024/02/10 19:51:21;;;;;;;8.88;7.93;;;12.50;99.90;;;;;;10422628;28;20757;-62
2024/02/10 19:56:26;;;;;;;8.98;7.75;;;12.50;99.90;;;;;;10416987;28;20297;-63
2024/02/10 20:01:31;;;;;;;11.15;10.05;;;12.50;99.90;;;;;;10416843;28;20517;-61
2024/02/10 20:06:36;;;;;;;9.77;8.77;;;12.60;99.90;;;;;;10418006;28;20216;-63
2024/02/10 20:11:40;;;;;;;10.75;9.60;;;12.60;99.90;;;;;;10425316;28;20756;-61
2024/02/10 20:16:45;;;;;;;11.07;9.43;;;12.60;99.90;;;;;;10404800;28;20223;-62
2024/02/10 20:21:49;;;;;;;10.40;9.27;;;12.50;99.90;;;;;;10415054;28;20196;-63
2024/02/10 20:26:53;;;;;;;10.48;9.15;;;12.50;99.90;;;;;;10421902;28;20204;-62
2024/02/10 20:31:58;;;;;;;10.80;9.38;;;12.40;99.90;;;;;;10423123;28;20305;-61
2024/02/10 20:37:09;;;;;;;8.98;7.63;;;12.40;99.90;;;;;;10419731;28;20203;-62
2024/02/10 20:42:13;;;;;;;7.93;7.13;;;12.40;99.90;;;;;;10420667;28;20223;-64
2024/02/10 20:47:21;;;;;;;8.38;7.30;;;12.30;99.90;;;;;;10414832;28;20231;-62
2024/02/10 20:52:24;;;;;;;10.50;8.52;;;12.30;99.90;;;;;;10424151;28;20273;-66
2024/02/10 20:57:29;;;;;;;8.32;7.40;;;12.30;99.90;;;;;;10421568;28;20293;-66
2024/02/10 21:02:34;;;;;;;8.35;6.90;;;12.30;99.90;;;;;;10406927;28;20299;-66
2024/02/10 21:07:39;;;;;;;8.57;7.78;;;12.30;99.90;;;;;;10415471;28;20280;-66
2024/02/10 21:12:45;;;;;;;8.55;7.75;;;12.30;99.90;;;;;;10418395;28;20346;-65
2024/02/10 21:17:50;;;;;;;8.73;7.93;;;12.30;99.90;;;;;;10419787;28;20203;-65
2024/02/10 21:22:54;;;;;;;9.82;8.23;;;12.30;99.90;;;;;;10423959;28;20219;-65
2024/02/10 21:27:58;;;;;;;9.88;8.25;;;12.30;99.90;;;;;;10422068;28;20200;-64
2024/02/10 21:33:03;;;;;;;9.50;8.50;;;12.30;99.90;;;;;;10424599;28;20273;-66
2024/02/10 21:38:07;;;;;;;10.98;8.18;;;12.30;99.90;;;;;;10428042;28;20200;-65
2024/02/10 21:43:11;;;;;;;10.02;8.95;;;12.20;99.90;;;;;;10417848;28;20243;-66
2024/02/10 21:48:16;;;;;;;9.82;8.70;;;12.20;99.90;;;;;;10423723;28;20265;-67
2024/02/10 21:53:19;;;;;;;8.60;7.57;;;12.20;99.90;;;;;;10412928;28;20698;-68
2024/02/10 21:58:23;;;;;;;10.68;9.20;;;12.20;99.90;;;;;;10420386;28;20235;-66
2024/02/10 22:03:28;;;;;;;9.23;8.32;;;12.20;99.90;;;;;;10413429;28;20735;-69
2024/02/10 22:08:32;;;;;;;10.00;9.00;;;12.20;99.90;;;;;;10429473;28;20663;-67
2024/02/10 22:13:35;;;;;;;9.10;8.20;;;12.10;99.90;;;;;;10420100;28;20757;-68
2024/02/10 22:18:41;;;;;;;9.27;8.38;;;12.10;99.90;;;;;;10415440;28;20261;-67
2024/02/10 22:23:46;;;;;;;9.82;8.93;;;12.10;99.90;;;;;;10422053;28;20286;-67
2024/02/10 22:28:49;;;;;;;9.32;8.43;;;12.10;99.90;;;;;;10411056;28;20207;-67
2024/02/10 22:33:54;;;;;;;9.43;8.52;;;12.10;99.90;;;;;;10405448;28;20631;-67
2024/02/10 22:38:59;;;;;;;10.20;8.70;;;12.00;99.90;;;;;;10414788;28;20231;-67
2024/02/10 22:44:03;;;;;;;10.43;8.93;;;12.00;99.90;;;;;;10425670;28;20278;-68
2024/02/10 22:49:09;;;;;;;10.95;9.85;;;12.00;99.90;;;;;;10413409;28;20741;-68
2024/02/10 22:54:13;;;;;;;12.23;9.23;;;12.00;99.90;;;;;;10416454;28;20274;-67
2024/02/10 22:59:17;;;;;;;11.15;10.02;;;12.00;99.90;;;;;;10419735;28;20243;-68
2024/02/10 23:04:22;;;;;;;11.00;9.98;;;11.90;99.90;;;;;;10422197;28;20310;-63
2024/02/10 23:09:33;;;;;;;11.20;10.20;;;11.90;99.90;;;;;;10418789;28;20200;-64
2024/02/10 23:14:37;;;;;;;10.43;9.38;;;11.90;99.90;;;;;;10417611;28;20282;-63
2024/02/10 23:19:42;;;;;;;11.00;10.00;;;11.90;99.90;;;;;;10410925;28;20742;-63
2024/02/10 23:24:47;;;;;;;10.45;9.40;;;11.80;99.90;;;;;;10405883;28;20216;-63
2024/02/10 23:29:54;;;;;;;9.88;8.88;;;11.80;99.90;;;;;;10409208;28;20212;-64
2024/02/10 23:34:59;;;;;;;10.18;9.18;;;11.80;99.90;;;;;;10408995;28;20279;-64
2024/02/10 23:40:05;;;;;;;9.55;8.55;;;11.80;99.90;;;;;;10403091;28;20254;-63
2024/02/10 23:45:09;;;;;;;10.73;9.63;;;11.70;99.90;;;;;;10405319;28;20625;-64
2024/02/10 23:50:19;;;;;;;9.73;8.82;;;11.70;99.90;;;;;;10402118;28;20745;-63
2024/02/10 23:55:23;;;;;;;11.30;9.15;;;11.70;99.90;;;;;;10405535;28;20282;-64
